sensor_id;sensor_type;location;lat;lon;timestamp;P1;durP1;ratioP1;P2;durP2;ratioP2
43504;SDS011;29098;48.184;16.298;2023-05-21T00:01:00;15.85;;;12.13;;
43504;SDS011;29098;48.184;16.298;2023-05-21T00:03:25;20.27;;;12.73;;
43504;SDS011;29098;48.184;16.298;2023-05-21T00:05:53;19.88;;;13.25;;
43504;SDS011;29098;48.184;16.298;2023-05-21T00:08:18;15.75;;;13.13;;
43504;SDS011;29098;48.184;16.298;2023-05-21T00:10:44;20.23;;;14.18;;
43504;SDS011;29098;48.184;16.298;2023-05-21T00:13:10;18.63;;;13.35;;
43504;SDS011;29098;48.184;16.298;2023-05-21T00:15:35;17.63;;;12.55;;
43504;SDS011;29098;48.184;16.298;2023-05-21T00:18:01;16.52;;;13.07;;
43504;SDS011;29098;48.184;16.298;2023-05-21T00:20:27;21.50;;;13.07;;
43504;SDS011;29098;48.184;16.298;2023-05-21T00:22:56;16.70;;;12.52;;
43504;SDS011;29098;48.184;16.298;2023-05-21T00:25:26;20.05;;;13.90;;
43504;SDS011;29098;48.184;16.298;2023-05-21T00:27:53;16.92;;;12.10;;
43504;SDS011;29098;48.184;16.298;2023-05-21T00:30:19;20.50;;;13.50;;
43504;SDS011;29098;48.184;16.298;2023-05-21T00:32:45;16.77;;;12.73;;
43504;SDS011;29098;48.184;16.298;2023-05-21T00:35:10;18.33;;;13.27;;
43504;SDS011;29098;48.184;16.298;2023-05-21T00:37:36;26.90;;;16.83;;
43504;SDS011;29098;48.184;16.298;2023-05-21T00:40:02;18.90;;;12.98;;
43504;SDS011;29098;48.184;16.298;2023-05-21T00:42:32;17.42;;;12.65;;
43504;SDS011;29098;48.184;16.298;2023-05-21T00:44:57;18.17;;;13.10;;
43504;SDS011;29098;48.184;16.298;2023-05-21T00:47:23;17.35;;;13.48;;
43504;SDS011;29098;48.184;16.298;2023-05-21T00:49:50;16.17;;;12.85;;
43504;SDS011;29098;48.184;16.298;2023-05-21T00:52:17;19.58;;;14.55;;
43504;SDS011;29098;48.184;16.298;2023-05-21T00:54:50;17.92;;;12.55;;
43504;SDS011;29098;48.184;16.298;2023-05-21T00:57:17;19.98;;;13.02;;
43504;SDS011;29098;48.184;16.298;2023-05-21T00:59:46;19.23;;;13.35;;
43504;SDS011;29098;48.184;16.298;2023-05-21T01:02:16;16.10;;;12.48;;
43504;SDS011;29098;48.184;16.298;2023-05-21T01:04:47;18.88;;;12.57;;
43504;SDS011;29098;48.184;16.298;2023-05-21T01:07:14;20.42;;;13.63;;
43504;SDS011;29098;48.184;16.298;2023-05-21T01:09:39;16.40;;;12.65;;
43504;SDS011;29098;48.184;16.298;2023-05-21T01:12:06;17.15;;;12.50;;
43504;SDS011;29098;48.184;16.298;2023-05-21T01:14:32;16.73;;;12.40;;
43504;SDS011;29098;48.184;16.298;2023-05-21T01:17:00;17.30;;;12.02;;
43504;SDS011;29098;48.184;16.298;2023-05-21T01:19:26;19.17;;;13.38;;
43504;SDS011;29098;48.184;16.298;2023-05-21T01:21:55;19.92;;;13.45;;
43504;SDS011;29098;48.184;16.298;2023-05-21T01:24:24;22.92;;;14.35;;
43504;SDS011;29098;48.184;16.298;2023-05-21T01:26:50;21.10;;;13.32;;
43504;SDS011;29098;48.184;16.298;2023-05-21T01:29:16;18.83;;;12.82;;
43504;SDS011;29098;48.184;16.298;2023-05-21T01:32:03;19.08;;;13.50;;
43504;SDS011;29098;48.184;16.298;2023-05-21T01:37:11;16.50;;;12.48;;
43504;SDS011;29098;48.184;16.298;2023-05-21T01:39:43;15.35;;;11.88;;
43504;SDS011;29098;48.184;16.298;2023-05-21T01:42:16;17.42;;;13.05;;
43504;SDS011;29098;48.184;16.298;2023-05-21T01:44:43;21.08;;;14.27;;
43504;SDS011;29098;48.184;16.298;2023-05-21T01:47:10;21.98;;;13.70;;
43504;SDS011;29098;48.184;16.298;2023-05-21T01:49:36;18.73;;;14.05;;
43504;SDS011;29098;48.184;16.298;2023-05-21T01:52:01;19.58;;;12.98;;
43504;SDS011;29098;48.184;16.298;2023-05-21T01:54:27;19.83;;;12.98;;
43504;SDS011;29098;48.184;16.298;2023-05-21T01:56:55;17.58;;;13.40;;
43504;SDS011;29098;48.184;16.298;2023-05-21T01:59:20;20.10;;;13.23;;
43504;SDS011;29098;48.184;16.298;2023-05-21T02:01:46;17.65;;;13.13;;
43504;SDS011;29098;48.184;16.298;2023-05-21T02:04:11;18.17;;;12.85;;
43504;SDS011;29098;48.184;16.298;2023-05-21T02:06:37;18.65;;;13.77;;
43504;SDS011;29098;48.184;16.298;2023-05-21T02:09:03;16.48;;;11.77;;
43504;SDS011;29098;48.184;16.298;2023-05-21T02:11:29;16.65;;;12.77;;
43504;SDS011;29098;48.184;16.298;2023-05-21T02:13:55;17.92;;;13.00;;
43504;SDS011;29098;48.184;16.298;2023-05-21T02:16:21;16.25;;;12.80;;
43504;SDS011;29098;48.184;16.298;2023-05-21T02:18:47;17.23;;;11.82;;
43504;SDS011;29098;48.184;16.298;2023-05-21T02:21:15;18.20;;;13.27;;
43504;SDS011;29098;48.184;16.298;2023-05-21T02:23:41;18.67;;;13.25;;
43504;SDS011;29098;48.184;16.298;2023-05-21T02:26:06;15.80;;;11.57;;
43504;SDS011;29098;48.184;16.298;2023-05-21T02:28:32;19.55;;;12.23;;
43504;SDS011;29098;48.184;16.298;2023-05-21T02:30:58;20.08;;;12.82;;
43504;SDS011;29098;48.184;16.298;2023-05-21T02:33:24;23.00;;;14.75;;
43504;SDS011;29098;48.184;16.298;2023-05-21T02:35:50;19.73;;;13.57;;
43504;SDS011;29098;48.184;16.298;2023-05-21T02:38:15;17.67;;;12.63;;
43504;SDS011;29098;48.184;16.298;2023-05-21T02:40:43;15.63;;;11.35;;
43504;SDS011;29098;48.184;16.298;2023-05-21T02:43:09;15.65;;;12.55;;
43504;SDS011;29098;48.184;16.298;2023-05-21T02:45:35;17.20;;;12.48;;
43504;SDS011;29098;48.184;16.298;2023-05-21T02:48:00;19.02;;;13.23;;
43504;SDS011;29098;48.184;16.298;2023-05-21T02:50:26;17.83;;;12.00;;
43504;SDS011;29098;48.184;16.298;2023-05-21T02:52:51;17.75;;;11.95;;
43504;SDS011;29098;48.184;16.298;2023-05-21T02:55:17;19.90;;;12.45;;
43504;SDS011;29098;48.184;16.298;2023-05-21T02:57:42;17.35;;;12.27;;
43504;SDS011;29098;48.184;16.298;2023-05-21T03:00:08;16.25;;;11.70;;
43504;SDS011;29098;48.184;16.298;2023-05-21T03:02:34;18.33;;;12.73;;
43504;SDS011;29098;48.184;16.298;2023-05-21T03:05:00;15.02;;;11.35;;
43504;SDS011;29098;48.184;16.298;2023-05-21T03:07:25;17.55;;;12.23;;
43504;SDS011;29098;48.184;16.298;2023-05-21T03:09:50;18.75;;;12.70;;
43504;SDS011;29098;48.184;16.298;2023-05-21T03:12:16;17.58;;;12.35;;
43504;SDS011;29098;48.184;16.298;2023-05-21T03:14:41;18.63;;;13.50;;
43504;SDS011;29098;48.184;16.298;2023-05-21T03:17:08;18.67;;;12.18;;
43504;SDS011;29098;48.184;16.298;2023-05-21T03:19:38;14.52;;;11.60;;
43504;SDS011;29098;48.184;16.298;2023-05-21T03:22:04;16.23;;;12.88;;
43504;SDS011;29098;48.184;16.298;2023-05-21T03:24:30;17.55;;;12.45;;
43504;SDS011;29098;48.184;16.298;2023-05-21T03:26:57;16.15;;;12.18;;
43504;SDS011;29098;48.184;16.298;2023-05-21T03:29:23;17.75;;;12.63;;
43504;SDS011;29098;48.184;16.298;2023-05-21T03:31:50;20.48;;;12.48;;
43504;SDS011;29098;48.184;16.298;2023-05-21T03:34:18;20.10;;;11.75;;
43504;SDS011;29098;48.184;16.298;2023-05-21T03:36:44;15.00;;;12.38;;
43504;SDS011;29098;48.184;16.298;2023-05-21T03:39:10;16.73;;;12.63;;
43504;SDS011;29098;48.184;16.298;2023-05-21T03:41:36;15.05;;;11.15;;
43504;SDS011;29098;48.184;16.298;2023-05-21T03:44:01;19.48;;;12.65;;
43504;SDS011;29098;48.184;16.298;2023-05-21T03:46:27;19.00;;;12.65;;
43504;SDS011;29098;48.184;16.298;2023-05-21T03:48:52;16.48;;;11.68;;
43504;SDS011;29098;48.184;16.298;2023-05-21T03:51:18;18.13;;;12.88;;
43504;SDS011;29098;48.184;16.298;2023-05-21T03:53:44;16.65;;;12.02;;
43504;SDS011;29098;48.184;16.298;2023-05-21T03:56:10;18.27;;;12.73;;
43504;SDS011;29098;48.184;16.298;2023-05-21T03:58:35;20.63;;;13.50;;
43504;SDS011;29098;48.184;16.298;2023-05-21T04:01:00;17.70;;;12.68;;
43504;SDS011;29098;48.184;16.298;2023-05-21T04:03:26;19.02;;;12.40;;
43504;SDS011;29098;48.184;16.298;2023-05-21T04:05:52;15.93;;;11.25;;
43504;SDS011;29098;48.184;16.298;2023-05-21T04:08:18;17.25;;;11.88;;
43504;SDS011;29098;48.184;16.298;2023-05-21T04:10:43;20.50;;;12.73;;
43504;SDS011;29098;48.184;16.298;2023-05-21T04:13:09;18.70;;;12.63;;
43504;SDS011;29098;48.184;16.298;2023-05-21T04:15:34;16.88;;;12.05;;
43504;SDS011;29098;48.184;16.298;2023-05-21T04:18:00;16.40;;;12.55;;
43504;SDS011;29098;48.184;16.298;2023-05-21T04:20:25;19.92;;;13.40;;
43504;SDS011;29098;48.184;16.298;2023-05-21T04:22:51;18.35;;;13.50;;
43504;SDS011;29098;48.184;16.298;2023-05-21T04:25:16;16.63;;;11.90;;
43504;SDS011;29098;48.184;16.298;2023-05-21T04:27:41;17.27;;;12.88;;
43504;SDS011;29098;48.184;16.298;2023-05-21T04:30:07;15.93;;;12.30;;
43504;SDS011;29098;48.184;16.298;2023-05-21T04:32:33;19.38;;;11.98;;
43504;SDS011;29098;48.184;16.298;2023-05-21T04:34:59;18.90;;;13.27;;
43504;SDS011;29098;48.184;16.298;2023-05-21T04:37:26;15.93;;;11.30;;
43504;SDS011;29098;48.184;16.298;2023-05-21T04:39:52;17.40;;;12.48;;
43504;SDS011;29098;48.184;16.298;2023-05-21T04:42:18;18.42;;;12.98;;
43504;SDS011;29098;48.184;16.298;2023-05-21T04:44:44;17.10;;;11.77;;
43504;SDS011;29098;48.184;16.298;2023-05-21T04:47:10;19.23;;;13.15;;
43504;SDS011;29098;48.184;16.298;2023-05-21T04:49:38;16.98;;;13.63;;
43504;SDS011;29098;48.184;16.298;2023-05-21T04:52:04;17.10;;;12.73;;
43504;SDS011;29098;48.184;16.298;2023-05-21T04:54:29;17.85;;;12.10;;
43504;SDS011;29098;48.184;16.298;2023-05-21T04:56:55;17.95;;;13.20;;
43504;SDS011;29098;48.184;16.298;2023-05-21T04:59:22;16.60;;;12.18;;
43504;SDS011;29098;48.184;16.298;2023-05-21T05:01:47;23.45;;;13.82;;
43504;SDS011;29098;48.184;16.298;2023-05-21T05:04:13;23.00;;;14.02;;
43504;SDS011;29098;48.184;16.298;2023-05-21T05:06:38;18.15;;;14.15;;
43504;SDS011;29098;48.184;16.298;2023-05-21T05:09:03;18.08;;;13.27;;
43504;SDS011;29098;48.184;16.298;2023-05-21T05:11:29;18.70;;;14.23;;
43504;SDS011;29098;48.184;16.298;2023-05-21T05:13:54;16.88;;;12.98;;
43504;SDS011;29098;48.184;16.298;2023-05-21T05:16:20;17.02;;;12.95;;
43504;SDS011;29098;48.184;16.298;2023-05-21T05:18:51;18.55;;;12.98;;
43504;SDS011;29098;48.184;16.298;2023-05-21T05:21:17;16.40;;;12.30;;
43504;SDS011;29098;48.184;16.298;2023-05-21T05:23:43;19.80;;;13.05;;
43504;SDS011;29098;48.184;16.298;2023-05-21T05:26:09;16.88;;;12.77;;
43504;SDS011;29098;48.184;16.298;2023-05-21T05:28:35;18.92;;;12.77;;
43504;SDS011;29098;48.184;16.298;2023-05-21T05:31:00;17.80;;;12.20;;
43504;SDS011;29098;48.184;16.298;2023-05-21T05:33:26;18.33;;;13.05;;
43504;SDS011;29098;48.184;16.298;2023-05-21T05:35:51;17.15;;;14.25;;
43504;SDS011;29098;48.184;16.298;2023-05-21T05:38:17;17.35;;;13.52;;
43504;SDS011;29098;48.184;16.298;2023-05-21T05:40:42;21.63;;;13.40;;
43504;SDS011;29098;48.184;16.298;2023-05-21T05:43:08;18.08;;;13.32;;
43504;SDS011;29098;48.184;16.298;2023-05-21T05:45:33;18.65;;;13.77;;
43504;SDS011;29098;48.184;16.298;2023-05-21T05:47:58;21.73;;;13.40;;
43504;SDS011;29098;48.184;16.298;2023-05-21T05:50:24;17.77;;;12.88;;
43504;SDS011;29098;48.184;16.298;2023-05-21T05:52:49;16.75;;;12.82;;
43504;SDS011;29098;48.184;16.298;2023-05-21T05:55:15;19.30;;;13.07;;
43504;SDS011;29098;48.184;16.298;2023-05-21T05:57:40;16.98;;;12.40;;
43504;SDS011;29098;48.184;16.298;2023-05-21T06:00:06;20.35;;;13.13;;
43504;SDS011;29098;48.184;16.298;2023-05-21T06:02:34;15.70;;;12.93;;
43504;SDS011;29098;48.184;16.298;2023-05-21T06:05:00;17.33;;;12.10;;
43504;SDS011;29098;48.184;16.298;2023-05-21T06:07:27;17.27;;;12.35;;
43504;SDS011;29098;48.184;16.298;2023-05-21T06:09:52;17.35;;;11.38;;
43504;SDS011;29098;48.184;16.298;2023-05-21T06:12:18;17.20;;;13.60;;
43504;SDS011;29098;48.184;16.298;2023-05-21T06:14:43;15.95;;;11.43;;
43504;SDS011;29098;48.184;16.298;2023-05-21T06:17:10;18.55;;;12.80;;
43504;SDS011;29098;48.184;16.298;2023-05-21T06:19:36;17.92;;;12.48;;
43504;SDS011;29098;48.184;16.298;2023-05-21T06:22:01;16.95;;;11.93;;
43504;SDS011;29098;48.184;16.298;2023-05-21T06:24:26;17.23;;;12.45;;
43504;SDS011;29098;48.184;16.298;2023-05-21T06:26:52;18.08;;;12.68;;
43504;SDS011;29098;48.184;16.298;2023-05-21T06:29:17;18.77;;;12.30;;
43504;SDS011;29098;48.184;16.298;2023-05-21T06:31:43;17.50;;;12.48;;
43504;SDS011;29098;48.184;16.298;2023-05-21T06:34:08;18.85;;;12.30;;
43504;SDS011;29098;48.184;16.298;2023-05-21T06:36:35;17.60;;;11.23;;
43504;SDS011;29098;48.184;16.298;2023-05-21T06:39:01;15.00;;;11.35;;
43504;SDS011;29098;48.184;16.298;2023-05-21T06:41:27;15.30;;;12.18;;
43504;SDS011;29098;48.184;16.298;2023-05-21T06:43:53;16.88;;;12.45;;
43504;SDS011;29098;48.184;16.298;2023-05-21T06:46:18;16.77;;;10.90;;
43504;SDS011;29098;48.184;16.298;2023-05-21T06:48:44;16.50;;;11.30;;
43504;SDS011;29098;48.184;16.298;2023-05-21T06:51:10;14.48;;;10.30;;
43504;SDS011;29098;48.184;16.298;2023-05-21T06:53:36;13.50;;;9.40;;
43504;SDS011;29098;48.184;16.298;2023-05-21T06:56:01;12.50;;;9.35;;
43504;SDS011;29098;48.184;16.298;2023-05-21T06:58:27;13.50;;;10.82;;
43504;SDS011;29098;48.184;16.298;2023-05-21T07:00:55;14.90;;;10.55;;
43504;SDS011;29098;48.184;16.298;2023-05-21T07:03:21;14.25;;;10.40;;
43504;SDS011;29098;48.184;16.298;2023-05-21T07:05:46;14.77;;;10.60;;
43504;SDS011;29098;48.184;16.298;2023-05-21T07:08:12;14.82;;;10.52;;
43504;SDS011;29098;48.184;16.298;2023-05-21T07:10:37;14.70;;;10.18;;
43504;SDS011;29098;48.184;16.298;2023-05-21T07:13:03;15.57;;;10.35;;
43504;SDS011;29098;48.184;16.298;2023-05-21T07:15:28;13.88;;;10.60;;
43504;SDS011;29098;48.184;16.298;2023-05-21T07:17:54;14.13;;;10.32;;
43504;SDS011;29098;48.184;16.298;2023-05-21T07:20:19;14.65;;;10.25;;
43504;SDS011;29098;48.184;16.298;2023-05-21T07:22:45;15.95;;;10.13;;
43504;SDS011;29098;48.184;16.298;2023-05-21T07:25:10;14.90;;;11.32;;
43504;SDS011;29098;48.184;16.298;2023-05-21T07:27:36;12.93;;;9.98;;
43504;SDS011;29098;48.184;16.298;2023-05-21T07:30:01;13.05;;;9.95;;
43504;SDS011;29098;48.184;16.298;2023-05-21T07:32:27;12.68;;;10.07;;
43504;SDS011;29098;48.184;16.298;2023-05-21T07:34:53;15.05;;;10.65;;
43504;SDS011;29098;48.184;16.298;2023-05-21T07:37:19;14.90;;;10.93;;
43504;SDS011;29098;48.184;16.298;2023-05-21T07:39:45;12.85;;;10.48;;
43504;SDS011;29098;48.184;16.298;2023-05-21T07:42:10;13.88;;;10.38;;
43504;SDS011;29098;48.184;16.298;2023-05-21T07:44:36;13.55;;;10.00;;
43504;SDS011;29098;48.184;16.298;2023-05-21T07:47:01;12.30;;;9.73;;
43504;SDS011;29098;48.184;16.298;2023-05-21T07:49:26;12.55;;;9.07;;
43504;SDS011;29098;48.184;16.298;2023-05-21T07:51:52;12.35;;;9.13;;
43504;SDS011;29098;48.184;16.298;2023-05-21T07:54:17;16.23;;;10.80;;
43504;SDS011;29098;48.184;16.298;2023-05-21T07:56:43;14.27;;;10.70;;
43504;SDS011;29098;48.184;16.298;2023-05-21T07:59:09;15.82;;;11.77;;
43504;SDS011;29098;48.184;16.298;2023-05-21T08:01:34;16.63;;;10.82;;
43504;SDS011;29098;48.184;16.298;2023-05-21T08:04:01;14.48;;;9.45;;
43504;SDS011;29098;48.184;16.298;2023-05-21T08:06:30;15.18;;;10.00;;
43504;SDS011;29098;48.184;16.298;2023-05-21T08:08:59;12.20;;;9.95;;
43504;SDS011;29098;48.184;16.298;2023-05-21T08:11:26;15.63;;;10.20;;
43504;SDS011;29098;48.184;16.298;2023-05-21T08:13:51;15.05;;;9.82;;
43504;SDS011;29098;48.184;16.298;2023-05-21T08:16:17;13.85;;;9.95;;
43504;SDS011;29098;48.184;16.298;2023-05-21T08:18:42;46.58;;;17.88;;
43504;SDS011;29098;48.184;16.298;2023-05-21T08:21:08;14.98;;;9.95;;
43504;SDS011;29098;48.184;16.298;2023-05-21T08:23:33;14.07;;;9.32;;
43504;SDS011;29098;48.184;16.298;2023-05-21T08:25:59;13.00;;;9.52;;
43504;SDS011;29098;48.184;16.298;2023-05-21T08:28:24;11.88;;;9.18;;
43504;SDS011;29098;48.184;16.298;2023-05-21T08:30:51;12.75;;;9.27;;
43504;SDS011;29098;48.184;16.298;2023-05-21T08:33:16;13.13;;;9.65;;
43504;SDS011;29098;48.184;16.298;2023-05-21T08:35:42;16.35;;;10.02;;
43504;SDS011;29098;48.184;16.298;2023-05-21T08:38:07;14.45;;;10.13;;
43504;SDS011;29098;48.184;16.298;2023-05-21T08:40:33;18.80;;;10.90;;
43504;SDS011;29098;48.184;16.298;2023-05-21T08:42:59;16.17;;;9.77;;
43504;SDS011;29098;48.184;16.298;2023-05-21T08:45:25;14.15;;;9.50;;
43504;SDS011;29098;48.184;16.298;2023-05-21T08:47:54;14.45;;;10.13;;
43504;SDS011;29098;48.184;16.298;2023-05-21T08:50:21;18.98;;;10.50;;
43504;SDS011;29098;48.184;16.298;2023-05-21T08:52:50;12.93;;;9.63;;
43504;SDS011;29098;48.184;16.298;2023-05-21T08:55:16;15.40;;;9.05;;
43504;SDS011;29098;48.184;16.298;2023-05-21T08:57:42;14.35;;;10.10;;
43504;SDS011;29098;48.184;16.298;2023-05-21T09:00:08;14.10;;;9.40;;
43504;SDS011;29098;48.184;16.298;2023-05-21T09:02:35;13.38;;;8.80;;
43504;SDS011;29098;48.184;16.298;2023-05-21T09:05:04;13.02;;;8.73;;
43504;SDS011;29098;48.184;16.298;2023-05-21T09:07:30;12.07;;;8.90;;
43504;SDS011;29098;48.184;16.298;2023-05-21T09:10:05;11.80;;;8.77;;
43504;SDS011;29098;48.184;16.298;2023-05-21T09:12:34;12.48;;;7.88;;
43504;SDS011;29098;48.184;16.298;2023-05-21T09:15:00;12.25;;;8.02;;
43504;SDS011;29098;48.184;16.298;2023-05-21T09:17:26;11.57;;;8.25;;
43504;SDS011;29098;48.184;16.298;2023-05-21T09:22:35;11.07;;;8.20;;
43504;SDS011;29098;48.184;16.298;2023-05-21T09:25:03;10.93;;;8.02;;
43504;SDS011;29098;48.184;16.298;2023-05-21T09:27:31;10.10;;;7.50;;
43504;SDS011;29098;48.184;16.298;2023-05-21T09:29:56;10.13;;;7.20;;
43504;SDS011;29098;48.184;16.298;2023-05-21T09:32:22;17.17;;;10.20;;
43504;SDS011;29098;48.184;16.298;2023-05-21T09:34:47;41.17;;;12.38;;
43504;SDS011;29098;48.184;16.298;2023-05-21T09:37:12;14.63;;;9.05;;
43504;SDS011;29098;48.184;16.298;2023-05-21T09:39:40;11.38;;;7.72;;
43504;SDS011;29098;48.184;16.298;2023-05-21T09:42:06;11.65;;;8.43;;
43504;SDS011;29098;48.184;16.298;2023-05-21T09:44:31;13.10;;;8.30;;
43504;SDS011;29098;48.184;16.298;2023-05-21T09:46:59;12.35;;;8.85;;
43504;SDS011;29098;48.184;16.298;2023-05-21T09:49:25;10.20;;;7.22;;
43504;SDS011;29098;48.184;16.298;2023-05-21T09:51:55;10.55;;;7.43;;
43504;SDS011;29098;48.184;16.298;2023-05-21T09:54:22;9.45;;;7.10;;
43504;SDS011;29098;48.184;16.298;2023-05-21T09:56:49;10.68;;;7.15;;
43504;SDS011;29098;48.184;16.298;2023-05-21T09:59:16;10.70;;;7.18;;
43504;SDS011;29098;48.184;16.298;2023-05-21T10:01:41;10.52;;;7.10;;
43504;SDS011;29098;48.184;16.298;2023-05-21T10:04:08;9.15;;;7.13;;
43504;SDS011;29098;48.184;16.298;2023-05-21T10:06:36;10.15;;;7.80;;
43504;SDS011;29098;48.184;16.298;2023-05-21T10:09:06;8.82;;;6.68;;
43504;SDS011;29098;48.184;16.298;2023-05-21T10:11:38;14.10;;;7.53;;
43504;SDS011;29098;48.184;16.298;2023-05-21T10:14:09;14.95;;;9.35;;
43504;SDS011;29098;48.184;16.298;2023-05-21T10:16:39;9.68;;;6.68;;
43504;SDS011;29098;48.184;16.298;2023-05-21T10:19:05;16.88;;;8.60;;
43504;SDS011;29098;48.184;16.298;2023-05-21T10:21:35;15.63;;;7.35;;
43504;SDS011;29098;48.184;16.298;2023-05-21T10:24:01;10.60;;;6.57;;
43504;SDS011;29098;48.184;16.298;2023-05-21T10:26:27;11.63;;;6.90;;
43504;SDS011;29098;48.184;16.298;2023-05-21T10:28:53;8.70;;;6.60;;
43504;SDS011;29098;48.184;16.298;2023-05-21T10:31:21;9.18;;;5.90;;
43504;SDS011;29098;48.184;16.298;2023-05-21T10:33:47;9.68;;;6.95;;
43504;SDS011;29098;48.184;16.298;2023-05-21T10:36:15;9.07;;;6.70;;
43504;SDS011;29098;48.184;16.298;2023-05-21T10:38:42;12.35;;;8.25;;
43504;SDS011;29098;48.184;16.298;2023-05-21T10:41:08;8.82;;;6.22;;
43504;SDS011;29098;48.184;16.298;2023-05-21T10:46:48;11.15;;;7.07;;
43504;SDS011;29098;48.184;16.298;2023-05-21T10:49:44;8.25;;;6.43;;
43504;SDS011;29098;48.184;16.298;2023-05-21T10:55:10;9.50;;;7.03;;
43504;SDS011;29098;48.184;16.298;2023-05-21T11:00:09;11.48;;;6.80;;
43504;SDS011;29098;48.184;16.298;2023-05-21T11:02:37;9.18;;;6.65;;
43504;SDS011;29098;48.184;16.298;2023-05-21T11:05:03;8.65;;;6.13;;
43504;SDS011;29098;48.184;16.298;2023-05-21T11:10:36;8.15;;;6.35;;
43504;SDS011;29098;48.184;16.298;2023-05-21T11:13:10;9.80;;;6.60;;
43504;SDS011;29098;48.184;16.298;2023-05-21T11:26:14;13.23;;;6.93;;
43504;SDS011;29098;48.184;16.298;2023-05-21T11:28:44;8.60;;;6.05;;
43504;SDS011;29098;48.184;16.298;2023-05-21T11:34:21;8.75;;;6.30;;
43504;SDS011;29098;48.184;16.298;2023-05-21T11:39:41;10.65;;;7.03;;
43504;SDS011;29098;48.184;16.298;2023-05-21T11:42:07;7.55;;;5.90;;
43504;SDS011;29098;48.184;16.298;2023-05-21T11:44:36;10.35;;;6.75;;
43504;SDS011;29098;48.184;16.298;2023-05-21T11:47:04;9.70;;;6.18;;
43504;SDS011;29098;48.184;16.298;2023-05-21T11:49:30;7.85;;;5.90;;
43504;SDS011;29098;48.184;16.298;2023-05-21T11:51:56;10.27;;;7.28;;
43504;SDS011;29098;48.184;16.298;2023-05-21T11:54:23;8.75;;;6.40;;
43504;SDS011;29098;48.184;16.298;2023-05-21T11:56:49;8.85;;;7.82;;
43504;SDS011;29098;48.184;16.298;2023-05-21T11:59:15;8.15;;;5.78;;
43504;SDS011;29098;48.184;16.298;2023-05-21T12:01:42;8.13;;;5.95;;
43504;SDS011;29098;48.184;16.298;2023-05-21T12:04:08;8.30;;;6.53;;
43504;SDS011;29098;48.184;16.298;2023-05-21T12:06:36;9.63;;;6.20;;
43504;SDS011;29098;48.184;16.298;2023-05-21T12:09:10;11.13;;;6.60;;
43504;SDS011;29098;48.184;16.298;2023-05-21T12:11:42;9.13;;;5.95;;
43504;SDS011;29098;48.184;16.298;2023-05-21T12:14:08;10.93;;;7.25;;
43504;SDS011;29098;48.184;16.298;2023-05-21T12:16:35;10.65;;;6.22;;
43504;SDS011;29098;48.184;16.298;2023-05-21T12:19:01;8.02;;;6.07;;
43504;SDS011;29098;48.184;16.298;2023-05-21T12:21:28;10.50;;;6.07;;
43504;SDS011;29098;48.184;16.298;2023-05-21T12:23:54;8.77;;;6.65;;
43504;SDS011;29098;48.184;16.298;2023-05-21T12:26:20;9.10;;;6.05;;
43504;SDS011;29098;48.184;16.298;2023-05-21T12:28:49;8.32;;;5.93;;
43504;SDS011;29098;48.184;16.298;2023-05-21T12:31:16;7.22;;;6.18;;
43504;SDS011;29098;48.184;16.298;2023-05-21T12:33:46;8.48;;;5.93;;
43504;SDS011;29098;48.184;16.298;2023-05-21T12:38:56;7.35;;;5.70;;
43504;SDS011;29098;48.184;16.298;2023-05-21T12:41:22;10.23;;;8.57;;
43504;SDS011;29098;48.184;16.298;2023-05-21T12:43:48;9.48;;;7.35;;
43504;SDS011;29098;48.184;16.298;2023-05-21T12:46:15;9.60;;;6.13;;
43504;SDS011;29098;48.184;16.298;2023-05-21T12:49:02;9.50;;;6.53;;
43504;SDS011;29098;48.184;16.298;2023-05-21T12:51:37;11.70;;;7.57;;
43504;SDS011;29098;48.184;16.298;2023-05-21T12:54:10;8.38;;;6.00;;
43504;SDS011;29098;48.184;16.298;2023-05-21T12:56:42;6.90;;;5.47;;
43504;SDS011;29098;48.184;16.298;2023-05-21T13:01:45;8.38;;;5.22;;
43504;SDS011;29098;48.184;16.298;2023-05-21T13:04:12;8.18;;;6.32;;
43504;SDS011;29098;48.184;16.298;2023-05-21T13:06:41;11.38;;;6.38;;
43504;SDS011;29098;48.184;16.298;2023-05-21T13:09:09;10.73;;;6.30;;
43504;SDS011;29098;48.184;16.298;2023-05-21T13:11:34;7.72;;;5.55;;
43504;SDS011;29098;48.184;16.298;2023-05-21T13:14:00;13.07;;;6.35;;
43504;SDS011;29098;48.184;16.298;2023-05-21T13:16:25;8.20;;;6.03;;
43504;SDS011;29098;48.184;16.298;2023-05-21T13:18:51;9.50;;;6.40;;
43504;SDS011;29098;48.184;16.298;2023-05-21T13:21:16;10.05;;;5.63;;
43504;SDS011;29098;48.184;16.298;2023-05-21T13:23:44;7.88;;;5.90;;
43504;SDS011;29098;48.184;16.298;2023-05-21T13:26:09;9.98;;;5.72;;
43504;SDS011;29098;48.184;16.298;2023-05-21T13:28:35;8.57;;;6.07;;
43504;SDS011;29098;48.184;16.298;2023-05-21T13:31:00;9.95;;;5.97;;
43504;SDS011;29098;48.184;16.298;2023-05-21T13:33:28;6.65;;;5.80;;
43504;SDS011;29098;48.184;16.298;2023-05-21T13:35:55;7.88;;;5.15;;
43504;SDS011;29098;48.184;16.298;2023-05-21T13:38:20;8.10;;;5.45;;
43504;SDS011;29098;48.184;16.298;2023-05-21T13:40:48;8.48;;;5.38;;
43504;SDS011;29098;48.184;16.298;2023-05-21T13:43:13;8.05;;;5.43;;
43504;SDS011;29098;48.184;16.298;2023-05-21T13:45:39;9.75;;;6.10;;
43504;SDS011;29098;48.184;16.298;2023-05-21T13:48:04;10.50;;;6.10;;
43504;SDS011;29098;48.184;16.298;2023-05-21T13:50:30;9.55;;;5.85;;
43504;SDS011;29098;48.184;16.298;2023-05-21T13:52:55;7.90;;;5.88;;
43504;SDS011;29098;48.184;16.298;2023-05-21T13:55:21;9.95;;;6.00;;
43504;SDS011;29098;48.184;16.298;2023-05-21T13:57:46;8.60;;;5.57;;
43504;SDS011;29098;48.184;16.298;2023-05-21T14:00:12;10.23;;;5.75;;
43504;SDS011;29098;48.184;16.298;2023-05-21T14:02:42;8.85;;;5.40;;
43504;SDS011;29098;48.184;16.298;2023-05-21T14:05:08;7.88;;;5.65;;
43504;SDS011;29098;48.184;16.298;2023-05-21T14:07:34;8.43;;;5.55;;
43504;SDS011;29098;48.184;16.298;2023-05-21T14:09:59;6.70;;;5.30;;
43504;SDS011;29098;48.184;16.298;2023-05-21T14:12:25;6.40;;;5.00;;
43504;SDS011;29098;48.184;16.298;2023-05-21T14:14:51;7.60;;;5.68;;
43504;SDS011;29098;48.184;16.298;2023-05-21T14:17:16;7.47;;;4.93;;
43504;SDS011;29098;48.184;16.298;2023-05-21T14:19:41;7.68;;;5.45;;
43504;SDS011;29098;48.184;16.298;2023-05-21T14:22:07;5.95;;;4.75;;
43504;SDS011;29098;48.184;16.298;2023-05-21T14:24:32;9.50;;;5.18;;
43504;SDS011;29098;48.184;16.298;2023-05-21T14:27:00;7.10;;;4.50;;
43504;SDS011;29098;48.184;16.298;2023-05-21T14:29:25;7.57;;;5.45;;
43504;SDS011;29098;48.184;16.298;2023-05-21T14:31:51;8.80;;;5.93;;
43504;SDS011;29098;48.184;16.298;2023-05-21T14:34:19;8.07;;;5.22;;
43504;SDS011;29098;48.184;16.298;2023-05-21T14:36:44;6.97;;;4.90;;
43504;SDS011;29098;48.184;16.298;2023-05-21T14:39:09;6.60;;;5.20;;
43504;SDS011;29098;48.184;16.298;2023-05-21T14:41:37;7.97;;;5.03;;
43504;SDS011;29098;48.184;16.298;2023-05-21T14:44:03;12.23;;;5.82;;
43504;SDS011;29098;48.184;16.298;2023-05-21T14:46:29;8.23;;;5.00;;
43504;SDS011;29098;48.184;16.298;2023-05-21T14:48:54;7.32;;;5.15;;
43504;SDS011;29098;48.184;16.298;2023-05-21T14:51:23;6.90;;;4.95;;